createdAt,value
2023-02-18T00:01:24.660Z,8.54
2023-02-18T00:03:51.884Z,8.46
2023-02-18T00:06:31.353Z,7.96
2023-02-18T00:09:01.802Z,8.33
2023-02-18T00:11:30.049Z,8.27
2023-02-18T00:13:59.051Z,8.25
2023-02-18T00:16:26.763Z,8.39
2023-02-18T00:19:01.622Z,8.44
2023-02-18T00:21:28.418Z,8.24
2023-02-18T00:23:55.601Z,8.10
2023-02-18T00:26:22.271Z,8.27
2023-02-18T00:28:49.847Z,8.21
2023-02-18T00:31:20.426Z,8.00
2023-02-18T00:33:47.114Z,8.13
2023-02-18T00:36:18.842Z,8.08
2023-02-18T00:38:47.124Z,8.14
2023-02-18T00:41:14.485Z,8.09
2023-02-18T00:43:41.172Z,7.97
2023-02-18T00:46:08.393Z,7.93
2023-02-18T00:48:35.725Z,7.91
2023-02-18T00:51:03.923Z,8.00
2023-02-18T00:53:31.138Z,8.10
2023-02-18T00:55:58.132Z,8.07
2023-02-18T00:58:25.215Z,8.06
2023-02-18T01:00:51.899Z,7.89
2023-02-18T01:03:18.688Z,7.92
2023-02-18T01:05:45.657Z,8.09
2023-02-18T01:08:12.711Z,8.09
2023-02-18T01:10:45.024Z,7.96
2023-02-18T01:13:12.944Z,8.06
2023-02-18T01:15:40.427Z,8.07
2023-02-18T01:18:07.958Z,8.06
2023-02-18T01:20:36.287Z,7.94
2023-02-18T01:23:03.518Z,7.82
2023-02-18T01:25:30.267Z,7.74
2023-02-18T01:27:57.025Z,7.89
2023-02-18T01:30:24.123Z,7.75
2023-02-18T01:32:51.294Z,7.71
2023-02-18T01:35:19.568Z,7.81
2023-02-18T01:37:47.438Z,7.85
2023-02-18T01:40:16.160Z,7.89
2023-02-18T01:42:43.250Z,7.92
2023-02-18T01:45:29.337Z,7.67
2023-02-18T01:47:56.309Z,7.70
2023-02-18T01:50:22.929Z,7.40
2023-02-18T01:52:49.580Z,7.44
2023-02-18T01:55:16.336Z,7.80
2023-02-18T01:57:43.379Z,7.67
2023-02-18T02:00:14.669Z,7.89
2023-02-18T02:02:47.668Z,7.62
2023-02-18T02:05:14.828Z,7.71
2023-02-18T02:07:42.733Z,7.56
2023-02-18T02:10:10.883Z,7.74
2023-02-18T02:12:49.685Z,7.90
2023-02-18T02:15:42.575Z,7.79
2023-02-18T02:18:27.460Z,7.80
2023-02-18T02:21:06.341Z,7.71
2023-02-18T02:24:13.004Z,7.77
2023-02-18T02:27:11.976Z,7.57
2023-02-18T02:30:08.460Z,7.66
2023-02-18T02:32:57.202Z,7.45
2023-02-18T02:35:25.506Z,7.30
2023-02-18T02:38:19.543Z,7.16
2023-02-18T02:41:00.087Z,7.56
2023-02-18T02:43:52.119Z,7.51
2023-02-18T02:46:23.789Z,7.50
2023-02-18T02:49:05.444Z,7.75
2023-02-18T02:51:47.222Z,7.73
2023-02-18T02:54:19.886Z,7.57
2023-02-18T02:56:46.949Z,7.42
2023-02-18T02:59:24.053Z,7.45
2023-02-18T03:01:57.243Z,7.48
2023-02-18T03:04:49.305Z,7.37
2023-02-18T03:07:36.796Z,7.27
2023-02-18T03:10:08.435Z,7.51
2023-02-18T03:12:47.535Z,7.65
2023-02-18T03:15:40.455Z,7.06
2023-02-18T03:18:15.267Z,7.37
2023-02-18T03:20:55.456Z,7.42
2023-02-18T03:23:26.270Z,7.45
2023-02-18T03:25:53.481Z,7.25
2023-02-18T03:28:21.754Z,7.55
2023-02-18T03:30:53.330Z,7.25
2023-02-18T03:33:29.815Z,7.43
2023-02-18T03:35:57.873Z,7.53
2023-02-18T03:38:29.229Z,7.40
2023-02-18T03:40:57.525Z,7.33
2023-02-18T03:43:24.481Z,7.00
2023-02-18T03:45:51.421Z,7.16
2023-02-18T03:48:18.985Z,7.36
2023-02-18T03:50:45.679Z,7.59
2023-02-18T03:53:12.583Z,7.51
2023-02-18T03:55:39.281Z,7.47
2023-02-18T03:58:05.923Z,7.56
2023-02-18T04:00:32.616Z,7.61
2023-02-18T04:02:59.258Z,7.66
2023-02-18T04:05:29.082Z,7.54
2023-02-18T04:07:55.731Z,7.47
2023-02-18T04:10:23.056Z,7.61
2023-02-18T04:12:49.888Z,7.57
2023-02-18T04:15:16.572Z,7.59
2023-02-18T04:17:43.431Z,7.60
2023-02-18T04:20:10.529Z,7.67
2023-02-18T04:22:37.162Z,7.64
2023-02-18T04:25:03.879Z,7.53
2023-02-18T04:27:30.548Z,7.43
2023-02-18T04:30:07.305Z,7.64
2023-02-18T04:32:34.040Z,7.59
2023-02-18T04:35:00.755Z,7.48
2023-02-18T04:37:27.403Z,7.34
2023-02-18T04:39:54.097Z,7.57
2023-02-18T04:42:20.885Z,7.52
2023-02-18T04:44:47.768Z,7.36
2023-02-18T04:47:14.786Z,7.47
2023-02-18T04:49:41.480Z,7.48
2023-02-18T04:52:08.152Z,7.59
2023-02-18T04:54:34.890Z,7.70
2023-02-18T04:57:01.535Z,7.53
2023-02-18T04:59:28.221Z,7.65
2023-02-18T05:01:54.917Z,7.83
2023-02-18T05:04:21.910Z,7.93
2023-02-18T05:06:48.631Z,7.84
2023-02-18T05:09:15.385Z,7.81
2023-02-18T05:11:45.175Z,7.84
2023-02-18T05:14:11.886Z,8.01
2023-02-18T05:16:38.538Z,7.95
2023-02-18T05:19:05.385Z,7.96
2023-02-18T05:21:32.072Z,7.73
2023-02-18T05:23:58.966Z,7.69
2023-02-18T05:26:25.647Z,7.59
2023-02-18T05:28:52.357Z,7.80
2023-02-18T05:31:19.043Z,7.93
2023-02-18T05:33:45.760Z,7.95
2023-02-18T05:36:12.388Z,8.12
2023-02-18T05:38:39.108Z,8.13
2023-02-18T05:41:05.835Z,8.08
2023-02-18T05:43:52.469Z,8.17
2023-02-18T05:46:19.164Z,8.10
2023-02-18T05:48:45.807Z,8.09
2023-02-18T05:51:12.463Z,8.24
2023-02-18T05:53:39.117Z,8.23
2023-02-18T05:56:06.323Z,8.14
2023-02-18T05:58:33.216Z,8.27
2023-02-18T06:00:59.847Z,8.35
2023-02-18T06:03:26.489Z,8.20
2023-02-18T06:05:53.281Z,8.24
2023-02-18T06:08:22.791Z,8.34
2023-02-18T06:10:49.479Z,8.30
2023-02-18T06:13:16.184Z,8.32
2023-02-18T06:15:42.990Z,8.36
2023-02-18T06:18:09.801Z,8.42
2023-02-18T06:20:36.442Z,8.41
2023-02-18T06:23:03.044Z,8.42
2023-02-18T06:25:29.929Z,8.41
2023-02-18T06:27:56.561Z,8.44
2023-02-18T06:30:24.572Z,8.35
2023-02-18T06:32:51.317Z,8.31
2023-02-18T06:35:18.045Z,8.34
2023-02-18T06:37:45.933Z,8.34
2023-02-18T06:40:12.796Z,8.17
2023-02-18T06:42:39.435Z,8.33
2023-02-18T06:45:06.900Z,8.21
2023-02-18T06:47:34.459Z,8.38
2023-02-18T06:50:01.121Z,8.44
2023-02-18T06:52:27.836Z,8.27
2023-02-18T06:54:54.621Z,8.18
2023-02-18T06:57:21.473Z,8.34
2023-02-18T06:59:48.064Z,8.44
2023-02-18T07:02:14.736Z,8.47
2023-02-18T07:04:41.376Z,8.45
2023-02-18T07:07:08.073Z,8.61
2023-02-18T07:09:34.654Z,8.52
2023-02-18T07:12:01.281Z,8.27
2023-02-18T07:14:28.615Z,8.42
2023-02-18T07:16:55.247Z,8.49
2023-02-18T07:19:21.963Z,8.63
2023-02-18T07:21:48.638Z,8.43
2023-02-18T07:24:15.260Z,8.33
2023-02-18T07:26:41.962Z,8.44
2023-02-18T07:29:08.599Z,8.39
2023-02-18T07:31:35.327Z,8.42
2023-02-18T07:34:01.976Z,8.29
2023-02-18T07:36:31.776Z,8.38
2023-02-18T07:38:58.386Z,8.50
2023-02-18T07:41:25.820Z,8.37
2023-02-18T07:43:52.452Z,8.39
2023-02-18T07:46:19.193Z,8.27
2023-02-18T07:48:45.947Z,8.47
2023-02-18T07:51:13.512Z,8.35
2023-02-18T07:53:40.397Z,8.22
2023-02-18T07:56:07.496Z,8.23
2023-02-18T07:58:36.567Z,8.34
2023-02-18T08:01:12.049Z,8.46
2023-02-18T08:03:39.674Z,8.48
2023-02-18T08:06:07.005Z,8.48
2023-02-18T08:08:36.601Z,8.46
2023-02-18T08:11:13.331Z,8.40
2023-02-18T08:13:47.006Z,8.18
2023-02-18T08:16:13.937Z,8.30
2023-02-18T08:18:40.599Z,8.24
2023-02-18T08:21:07.256Z,8.32
2023-02-18T08:23:33.940Z,8.53
2023-02-18T08:26:00.601Z,8.59
2023-02-18T08:28:27.538Z,8.62
2023-02-18T08:30:54.760Z,8.65
2023-02-18T08:33:22.341Z,8.73
2023-02-18T08:35:50.647Z,8.79
2023-02-18T08:38:17.494Z,8.74
2023-02-18T08:40:44.476Z,8.83
2023-02-18T08:43:11.151Z,8.84
2023-02-18T08:45:38.720Z,8.81
2023-02-18T08:48:17.250Z,8.93
2023-02-18T08:50:47.184Z,9.00
2023-02-18T08:53:13.811Z,8.98
2023-02-18T08:55:41.032Z,8.87
2023-02-18T08:58:08.041Z,8.79
2023-02-18T09:00:35.154Z,8.81
2023-02-18T09:03:01.883Z,8.89
2023-02-18T09:05:28.540Z,8.91
2023-02-18T09:07:55.322Z,8.94
2023-02-18T09:10:22.203Z,8.69
2023-02-18T09:12:48.855Z,8.70
2023-02-18T09:15:15.825Z,8.75
2023-02-18T09:17:42.437Z,8.72
2023-02-18T09:20:09.564Z,8.65
2023-02-18T09:22:36.161Z,8.75
2023-02-18T09:25:03.756Z,8.88
2023-02-18T09:27:30.423Z,8.87
2023-02-18T09:29:57.126Z,8.81
2023-02-18T09:32:34.286Z,8.75
2023-02-18T09:35:02.926Z,8.79
2023-02-18T09:37:29.742Z,8.77
2023-02-18T09:39:56.452Z,8.92
2023-02-18T09:42:31.151Z,8.79
2023-02-18T09:45:01.111Z,8.81
2023-02-18T09:47:30.800Z,8.87
2023-02-18T09:50:01.472Z,8.96
2023-02-18T09:52:30.995Z,8.95
2023-02-18T09:54:57.950Z,9.00
2023-02-18T09:57:33.935Z,9.04
2023-02-18T10:00:07.710Z,8.98
2023-02-18T10:02:42.201Z,9.02
2023-02-18T10:05:14.241Z,9.14
2023-02-18T10:07:41.319Z,8.99
2023-02-18T10:10:33.542Z,8.95
2023-02-18T10:13:00.785Z,8.85
2023-02-18T10:15:29.755Z,8.91
2023-02-18T10:17:57.480Z,8.91
2023-02-18T10:20:28.144Z,8.90
2023-02-18T10:22:55.907Z,9.00
2023-02-18T10:25:23.679Z,9.05
2023-02-18T10:27:52.334Z,9.12
2023-02-18T10:30:33.540Z,9.18
2023-02-18T10:33:30.686Z,9.09
2023-02-18T10:36:12.758Z,9.02
2023-02-18T10:38:57.788Z,8.94
2023-02-18T10:41:53.014Z,9.07
2023-02-18T10:44:38.137Z,9.13
2023-02-18T10:47:22.843Z,9.12
2023-02-18T10:49:59.271Z,9.07
2023-02-18T10:52:30.459Z,9.06
2023-02-18T10:55:06.571Z,8.99
2023-02-18T10:57:33.769Z,9.11
2023-02-18T11:00:00.392Z,9.03
2023-02-18T11:02:31.606Z,8.89
2023-02-18T11:05:05.132Z,8.96
2023-02-18T11:07:34.419Z,9.07
2023-02-18T11:10:09.810Z,9.14
2023-02-18T11:12:46.732Z,9.23
2023-02-18T11:15:23.647Z,9.08
2023-02-18T11:17:52.624Z,9.04
2023-02-18T11:20:30.433Z,9.02
2023-02-18T11:22:59.125Z,8.98
2023-02-18T11:25:29.359Z,9.02
2023-02-18T11:27:57.872Z,8.87
2023-02-18T11:30:27.900Z,8.95
2023-02-18T11:32:58.251Z,9.06
2023-02-18T11:35:27.830Z,9.09
2023-02-18T11:37:57.259Z,9.09
2023-02-18T11:40:35.053Z,9.16
2023-02-18T11:43:13.706Z,9.22
2023-02-18T11:45:40.801Z,9.16
2023-02-18T11:48:15.655Z,9.21
2023-02-18T11:50:42.537Z,9.19
2023-02-18T11:53:35.204Z,9.09
2023-02-18T11:56:05.792Z,9.11
2023-02-18T11:58:40.051Z,9.29
2023-02-18T12:01:14.213Z,9.29
2023-02-18T12:03:40.806Z,9.46
2023-02-18T12:06:16.143Z,9.54
2023-02-18T12:08:54.726Z,9.58
2023-02-18T12:11:32.908Z,9.49
2023-02-18T12:13:59.747Z,9.63
2023-02-18T12:17:03.542Z,9.69
2023-02-18T12:19:51.626Z,9.72
2023-02-18T12:22:45.413Z,9.85
2023-02-18T12:25:26.491Z,10.02
2023-02-18T12:28:10.807Z,10.00
2023-02-18T12:31:05.208Z,10.03
2023-02-18T12:33:56.076Z,9.90
2023-02-18T12:36:28.787Z,10.17
2023-02-18T12:39:14.272Z,10.27
2023-02-18T12:42:17.316Z,10.31
2023-02-18T12:44:58.071Z,10.54
2023-02-18T12:47:31.862Z,10.46
2023-02-18T12:50:18.777Z,10.45
2023-02-18T12:53:14.975Z,10.68
2023-02-18T12:56:06.829Z,10.72
2023-02-18T12:58:39.522Z,10.98
2023-02-18T13:01:31.091Z,11.09
2023-02-18T13:04:15.937Z,10.93
2023-02-18T13:06:53.065Z,11.15
2023-02-18T13:10:02.395Z,11.16
2023-02-18T13:12:29.098Z,11.11
2023-02-18T13:15:05.774Z,11.13
2023-02-18T13:17:37.779Z,11.26
2023-02-18T13:20:27.815Z,11.32
2023-02-18T13:22:55.055Z,11.20
2023-02-18T13:25:22.209Z,11.31
2023-02-18T13:28:18.959Z,11.10
2023-02-18T13:30:55.487Z,11.23
2023-02-18T13:33:29.161Z,11.31
2023-02-18T13:36:11.038Z,11.27
2023-02-18T13:38:52.961Z,11.45
2023-02-18T13:41:21.400Z,11.56
2023-02-18T13:43:48.711Z,11.47
2023-02-18T13:46:19.120Z,11.33
2023-02-18T13:49:13.421Z,11.54
2023-02-18T13:51:48.783Z,11.63
2023-02-18T13:54:25.440Z,11.66
2023-02-18T13:56:54.989Z,11.43
2023-02-18T13:59:50.011Z,11.20
2023-02-18T14:02:20.693Z,11.29
2023-02-18T14:05:16.174Z,11.20
2023-02-18T14:07:50.489Z,11.34
2023-02-18T14:10:17.039Z,11.16
2023-02-18T14:12:51.675Z,11.19
2023-02-18T14:15:18.597Z,11.22
2023-02-18T14:18:09.876Z,11.40
2023-02-18T14:20:39.500Z,11.32
2023-02-18T14:23:18.357Z,11.21
2023-02-18T14:26:16.164Z,11.42
2023-02-18T14:28:48.944Z,11.40
2023-02-18T14:31:15.912Z,11.02
2023-02-18T14:34:01.299Z,11.11
2023-02-18T14:36:37.128Z,11.19
2023-02-18T14:39:41.132Z,11.05
2023-02-18T14:42:31.654Z,11.17
2023-02-18T14:45:11.935Z,11.25
2023-02-18T14:47:58.118Z,11.12
2023-02-18T14:50:25.036Z,11.18
2023-02-18T14:52:58.093Z,11.10
2023-02-18T14:55:30.919Z,11.24
2023-02-18T14:58:07.749Z,11.08
2023-02-18T15:00:39.433Z,11.08
2023-02-18T15:03:13.780Z,10.99
2023-02-18T15:05:40.498Z,11.06
2023-02-18T15:08:16.184Z,11.01
2023-02-18T15:10:56.511Z,11.04
2023-02-18T15:13:31.534Z,11.18
2023-02-18T15:16:02.291Z,11.05
2023-02-18T15:18:37.135Z,10.67
2023-02-18T15:21:05.682Z,10.88
2023-02-18T15:23:38.766Z,10.90
2023-02-18T15:26:06.875Z,11.09
2023-02-18T15:28:34.477Z,11.14
2023-02-18T15:31:03.425Z,11.02
2023-02-18T15:33:30.428Z,11.08
2023-02-18T15:36:06.005Z,10.67
2023-02-18T15:38:32.872Z,10.74
2023-02-18T15:41:00.086Z,10.48
2023-02-18T15:43:27.512Z,10.77
2023-02-18T15:45:58.041Z,10.60
2023-02-18T15:48:42.993Z,10.85
2023-02-18T15:51:17.619Z,10.87
2023-02-18T15:53:47.417Z,10.92
2023-02-18T15:56:38.180Z,10.98
2023-02-18T15:59:18.547Z,10.72
2023-02-18T16:01:53.467Z,10.87
2023-02-18T16:04:22.147Z,10.75
2023-02-18T16:06:53.737Z,10.86
2023-02-18T16:09:27.204Z,10.83
2023-02-18T16:12:02.336Z,10.82
2023-02-18T16:14:34.003Z,10.83
2023-02-18T16:17:12.987Z,10.85
2023-02-18T16:20:02.836Z,10.44
2023-02-18T16:22:30.762Z,10.49
2023-02-18T16:25:02.024Z,10.54
2023-02-18T16:27:33.643Z,10.75
2023-02-18T16:30:03.684Z,10.68
2023-02-18T16:32:30.335Z,10.75
2023-02-18T16:34:57.439Z,10.53
2023-02-18T16:37:39.108Z,10.65
2023-02-18T16:40:21.881Z,10.72
2023-02-18T16:42:48.563Z,10.87
2023-02-18T16:45:15.763Z,10.68
2023-02-18T16:47:43.600Z,10.74
2023-02-18T16:50:21.660Z,10.79
2023-02-18T16:52:49.371Z,10.86
2023-02-18T16:55:19.079Z,10.63
2023-02-18T16:57:48.258Z,10.73
2023-02-18T17:00:17.496Z,10.32
2023-02-18T17:02:46.617Z,10.52
2023-02-18T17:05:26.896Z,10.68
2023-02-18T17:07:54.961Z,10.47
2023-02-18T17:10:21.729Z,10.80
2023-02-18T17:12:48.826Z,10.33
2023-02-18T17:15:23.953Z,10.41
2023-02-18T17:17:50.779Z,10.47
2023-02-18T17:20:18.110Z,10.51
2023-02-18T17:22:44.791Z,10.62
2023-02-18T17:25:17.931Z,10.27
2023-02-18T17:27:46.409Z,9.71
2023-02-18T17:30:14.626Z,9.91
2023-02-18T17:32:42.315Z,10.23
2023-02-18T17:35:17.895Z,10.16
2023-02-18T17:37:44.615Z,9.90
2023-02-18T17:40:20.772Z,10.09
2023-02-18T17:42:47.775Z,9.42
2023-02-18T17:45:19.473Z,9.78
2023-02-18T17:47:46.551Z,9.98
2023-02-18T17:50:13.692Z,10.03
2023-02-18T17:52:40.527Z,10.12
2023-02-18T17:55:17.332Z,10.15
2023-02-18T17:57:45.175Z,10.06
2023-02-18T18:00:14.827Z,10.02
2023-02-18T18:02:41.517Z,10.06
2023-02-18T18:05:16.080Z,9.70
2023-02-18T18:07:42.900Z,9.81
2023-02-18T18:10:09.843Z,9.54
2023-02-18T18:12:36.667Z,9.68
2023-02-18T18:15:13.153Z,9.65
2023-02-18T18:17:39.919Z,9.34
2023-02-18T18:20:07.446Z,9.58
2023-02-18T18:22:34.130Z,9.60
2023-02-18T18:25:00.910Z,9.58
2023-02-18T18:27:27.637Z,9.60
2023-02-18T18:29:54.316Z,9.61
2023-02-18T18:32:22.972Z,9.27
2023-02-18T18:34:50.048Z,9.42
2023-02-18T18:37:16.710Z,9.61
2023-02-18T18:39:43.356Z,9.56
2023-02-18T18:42:12.374Z,9.68
2023-02-18T18:44:39.006Z,9.71
2023-02-18T18:47:05.763Z,9.25
2023-02-18T18:49:32.407Z,9.11
2023-02-18T18:51:59.457Z,8.93
2023-02-18T18:54:26.114Z,9.34
2023-02-18T18:56:53.548Z,9.49
2023-02-18T18:59:20.466Z,9.49
2023-02-18T19:01:47.270Z,9.39
2023-02-18T19:04:14.626Z,9.52
2023-02-18T19:06:41.493Z,9.58
2023-02-18T19:09:10.641Z,9.23
2023-02-18T19:11:37.700Z,9.49
2023-02-18T19:14:04.314Z,9.53
2023-02-18T19:16:39.899Z,9.18
2023-02-18T19:19:06.750Z,9.21
2023-02-18T19:21:33.652Z,9.40
2023-02-18T19:24:00.489Z,9.41
2023-02-18T19:26:28.089Z,9.39
2023-02-18T19:28:55.103Z,9.36
2023-02-18T19:31:24.493Z,9.26
2023-02-18T19:33:51.757Z,9.08
2023-02-18T19:36:18.807Z,9.08
2023-02-18T19:38:46.218Z,9.14
2023-02-18T19:41:15.531Z,8.92
2023-02-18T19:43:44.234Z,8.92
2023-02-18T19:46:15.358Z,9.06
2023-02-18T19:48:42.498Z,9.00
2023-02-18T19:51:12.517Z,8.93
2023-02-18T19:53:39.478Z,8.91
2023-02-18T19:56:07.524Z,8.81
2023-02-18T19:58:35.504Z,9.04
2023-02-18T20:01:02.390Z,8.96
2023-02-18T20:03:29.616Z,8.74
2023-02-18T20:05:56.295Z,8.88
2023-02-18T20:08:22.958Z,9.07
2023-02-18T20:10:57.809Z,9.10
2023-02-18T20:13:24.504Z,9.06
2023-02-18T20:15:51.210Z,9.14
2023-02-18T20:18:17.923Z,9.28
2023-02-18T20:20:51.318Z,9.08
2023-02-18T20:23:18.170Z,8.96
2023-02-18T20:25:47.692Z,9.00
2023-02-18T20:28:17.577Z,8.99
2023-02-18T20:30:44.531Z,9.09
2023-02-18T20:33:11.246Z,9.04
2023-02-18T20:35:38.071Z,8.96
2023-02-18T20:38:04.743Z,9.13
2023-02-18T20:40:31.400Z,9.05
2023-02-18T20:42:58.099Z,8.94
2023-02-18T20:45:25.941Z,9.04
2023-02-18T20:47:55.704Z,8.48
2023-02-18T20:50:22.497Z,8.40
2023-02-18T20:52:49.156Z,8.68
2023-02-18T20:55:15.902Z,8.94
2023-02-18T20:57:42.591Z,9.02
2023-02-18T21:00:09.947Z,8.95
2023-02-18T21:02:39.733Z,8.93
2023-02-18T21:05:06.446Z,8.91
2023-02-18T21:07:33.137Z,8.47
2023-02-18T21:09:59.863Z,8.81
2023-02-18T21:12:26.564Z,8.72
2023-02-18T21:14:53.243Z,8.73
2023-02-18T21:17:19.951Z,8.54
2023-02-18T21:19:46.613Z,8.67
2023-02-18T21:22:13.377Z,8.36
2023-02-18T21:24:43.723Z,8.54
2023-02-18T21:27:10.936Z,8.39
2023-02-18T21:29:37.600Z,8.32
2023-02-18T21:32:04.494Z,8.62
2023-02-18T21:34:31.167Z,8.60
2023-02-18T21:36:57.885Z,8.52
2023-02-18T21:39:24.563Z,8.48
2023-02-18T21:41:51.224Z,8.59
2023-02-18T21:44:18.012Z,8.69
2023-02-18T21:46:44.728Z,8.60
2023-02-18T21:49:12.663Z,8.64
2023-02-18T21:52:08.651Z,8.66
2023-02-18T21:54:44.744Z,8.54
2023-02-18T21:57:17.542Z,8.56
2023-02-18T21:59:45.474Z,8.47
2023-02-18T22:02:17.119Z,8.59
2023-02-18T22:04:44.065Z,8.60
2023-02-18T22:07:10.754Z,8.43
2023-02-18T22:09:37.580Z,8.47
2023-02-18T22:12:05.102Z,8.54
2023-02-18T22:14:31.912Z,8.67
2023-02-18T22:16:58.880Z,8.70
2023-02-18T22:19:26.009Z,8.57
2023-02-18T22:21:52.760Z,8.58
2023-02-18T22:24:19.482Z,8.70
2023-02-18T22:26:49.120Z,8.68
2023-02-18T22:29:18.241Z,8.72
2023-02-18T22:31:45.041Z,8.65
2023-02-18T22:34:11.840Z,8.70
2023-02-18T22:36:39.350Z,8.73
2023-02-18T22:39:06.333Z,8.65
2023-02-18T22:41:36.785Z,8.68
2023-02-18T22:44:05.920Z,8.68
2023-02-18T22:46:36.116Z,8.71
2023-02-18T22:49:04.665Z,8.73
2023-02-18T22:51:52.189Z,8.70
2023-02-18T22:54:19.673Z,8.79
2023-02-18T22:56:47.203Z,8.79
2023-02-18T22:59:15.576Z,8.71
2023-02-18T23:01:44.785Z,8.74
2023-02-18T23:04:13.305Z,8.80
2023-02-18T23:06:41.984Z,8.75
2023-02-18T23:09:11.837Z,8.73
2023-02-18T23:11:41.503Z,8.58
2023-02-18T23:14:21.466Z,8.66
2023-02-18T23:17:15.169Z,8.67
2023-02-18T23:19:48.880Z,8.73
2023-02-18T23:22:18.230Z,8.69
2023-02-18T23:24:45.959Z,8.68
2023-02-18T23:27:15.215Z,8.69
2023-02-18T23:29:42.278Z,8.67
2023-02-18T23:32:09.768Z,8.63
2023-02-18T23:34:37.798Z,8.66
2023-02-18T23:37:04.650Z,8.59
2023-02-18T23:39:31.336Z,8.59
2023-02-18T23:41:58.065Z,8.56
2023-02-18T23:44:26.232Z,8.60
2023-02-18T23:46:53.292Z,8.61
2023-02-18T23:49:22.345Z,8.59
2023-02-18T23:51:50.307Z,8.56
2023-02-18T23:54:17.108Z,8.58
2023-02-18T23:56:44.911Z,8.58
2023-02-18T23:59:12.334Z,8.55
